KLKV/LKV METAR and TAF weather

Enter ICAO airport designator
Station Type Date Time Source
KLKV METAR 2020/07/04 09:53 UTC NOAA

KLKV 040953Z AUTO 33003KT 10SM CLR 08/02 A3017 RMK AO2 SLP183 T00780017


Station Type Date Time Source
KLKV Decoded METAR 2020/07/04 09:53 UTC NOAA

Lakeview, Lake County Airport, OR, United States (KLKV) 42-10N 120-24W
Jul 04, 2020 - 05:53 AM EDT / 2020.07.04 0953 UTC
Wind: from the NNW (330 degrees) at 3 MPH (3 KT):0
Visibility: 10 mile(s):0
Sky conditions: clear
Temperature: 46.0 F (7.8 C)
Dew Point: 35.1 F (1.7 C)
Relative Humidity: 65%
Pressure (altimeter): 30.17 in. Hg (1021 hPa)
ob: KLKV 040953Z AUTO 33003KT 10SM CLR 08/02 A3017 RMK AO2 SLP183 T00780017
cycle: 10

Station Type Date Time Source
KLKV TAF UTC NOAA

Error!

Example: see airport list